Time;durP1;ratioP1;P1;durP2;ratioP2;P2;SDS_P1;SDS_P2;PMS_P1;PMS_P2;Temp;Humidity;BMP_temperature;BMP_pressure;BME280_temperature;BME280_humidity;BME280_pressure;Samples;Min_cycle;Max_cycle;Signal;HPM_P1;HPM_P2
2023/11/20 00:00:37;;;;;;;;;;;20.80;65.30;;;;;;1513839;76;860;-58
2023/11/20 00:02:42;;;;;;;;;;;20.80;65.40;;;;;;1510500;76;1182;-59
2023/11/20 00:04:44;;;;;;;;;;;20.70;65.40;;;;;;1519475;76;819;-58
2023/11/20 00:06:46;;;;;;;;;;;20.70;65.30;;;;;;1516768;76;749;-60
2023/11/20 00:08:47;;;;;;;;;;;20.80;65.40;;;;;;1515706;76;742;-60
2023/11/20 00:10:49;;;;;;;;;;;20.70;65.40;;;;;;1526059;76;739;-59
2023/11/20 00:12:51;;;;;;;;;;;20.70;65.40;;;;;;1523277;75;2002;-59
2023/11/20 00:14:53;;;;;;;;;;;20.80;65.40;;;;;;1517446;76;783;-61
2023/11/20 00:16:55;;;;;;;;;;;20.80;65.50;;;;;;1524204;76;764;-60
2023/11/20 00:18:57;;;;;;;;;;;20.80;65.50;;;;;;1529374;76;795;-63
2023/11/20 00:20:59;;;;;;;;;;;20.70;65.50;;;;;;1516079;76;713;-61
2023/11/20 00:23:01;;;;;;;;;;;20.70;65.60;;;;;;1514766;76;1212;-61
2023/11/20 00:25:03;;;;;;;;;;;20.70;65.60;;;;;;1517738;76;784;-62
2023/11/20 00:27:05;;;;;;;;;;;20.70;65.70;;;;;;1521588;76;1540;-61
2023/11/20 00:29:08;;;;;;;;;;;20.70;65.70;;;;;;1515869;76;746;-61
2023/11/20 00:31:13;;;;;;;;;;;20.70;65.70;;;;;;1518535;76;691;-61
2023/11/20 00:33:15;;;;;;;;;;;20.70;65.70;;;;;;1525307;76;1937;-61
2023/11/20 00:35:17;;;;;;;;;;;20.70;65.70;;;;;;1527284;76;692;-61
2023/11/20 00:37:19;;;;;;;;;;;20.70;65.80;;;;;;1519673;76;694;-63
2023/11/20 00:39:21;;;;;;;;;;;20.70;65.90;;;;;;1521529;76;664;-62
2023/11/20 00:41:23;;;;;;;;;;;20.70;65.90;;;;;;1517448;76;1572;-64
2023/11/20 00:43:25;;;;;;;;;;;20.70;66.00;;;;;;1519256;76;1176;-62
2023/11/20 00:45:27;;;;;;;;;;;20.70;66.00;;;;;;1515051;76;715;-63
2023/11/20 00:47:29;;;;;;;;;;;20.70;66.10;;;;;;1527245;76;679;-62
2023/11/20 00:49:31;;;;;;;;;;;20.70;66.10;;;;;;1526946;76;748;-62
2023/11/20 00:51:32;;;;;;;;;;;20.70;66.20;;;;;;1518642;76;1922;-62
2023/11/20 00:53:34;;;;;;;;;;;20.70;66.20;;;;;;1516318;76;1105;-62
2023/11/20 00:55:36;;;;;;;;;;;20.70;66.30;;;;;;1524455;76;1442;-63
2023/11/20 00:57:38;;;;;;;;;;;20.70;66.30;;;;;;1527441;76;718;-61
2023/11/20 00:59:40;;;;;;;;;;;20.70;66.40;;;;;;1530400;76;732;-61
2023/11/20 01:01:42;;;;;;;;;;;20.70;66.50;;;;;;1521057;76;790;-63
2023/11/20 01:03:44;;;;;;;;;;;20.60;66.50;;;;;;1524832;75;1099;-62
2023/11/20 01:05:46;;;;;;;;;;;20.70;66.70;;;;;;1519152;76;706;-63
2023/11/20 01:07:48;;;;;;;;;;;20.60;66.70;;;;;;1519678;76;672;-63
2023/11/20 01:09:50;;;;;;;;;;;20.70;66.90;;;;;;1518525;76;1304;-64
2023/11/20 01:11:52;;;;;;;;;;;20.70;67.00;;;;;;1526536;76;1942;-62
2023/11/20 01:13:55;;;;;;;;;;;20.70;67.20;;;;;;1518893;76;770;-62
2023/11/20 01:15:57;;;;;;;;;;;20.70;67.40;;;;;;1523711;76;687;-64
2023/11/20 01:17:59;;;;;;;;;;;20.60;67.30;;;;;;1525067;76;651;-64
2023/11/20 01:20:02;;;;;;;;;;;20.70;67.60;;;;;;1519933;76;678;-63
2023/11/20 01:22:04;;;;;;;;;;;20.70;67.80;;;;;;1526175;76;1141;-63
2023/11/20 01:24:06;;;;;;;;;;;20.60;67.90;;;;;;1523105;76;1581;-63
2023/11/20 01:26:08;;;;;;;;;;;20.70;68.00;;;;;;1521240;76;978;-62
2023/11/20 01:28:10;;;;;;;;;;;20.70;68.20;;;;;;1516356;76;728;-63
2023/11/20 01:30:12;;;;;;;;;;;20.60;68.10;;;;;;1515098;76;824;-61
2023/11/20 01:32:14;;;;;;;;;;;20.60;68.30;;;;;;1515910;76;1934;-62
2023/11/20 01:34:16;;;;;;;;;;;20.70;68.30;;;;;;1519775;76;670;-62
2023/11/20 01:36:18;;;;;;;;;;;20.60;68.40;;;;;;1520299;76;758;-59
2023/11/20 01:38:20;;;;;;;;;;;20.70;68.70;;;;;;1515992;76;1513;-62
2023/11/20 01:40:22;;;;;;;;;;;20.70;68.70;;;;;;1526803;76;723;-60
2023/11/20 01:42:24;;;;;;;;;;;20.70;68.70;;;;;;1528925;76;1190;-60
2023/11/20 01:44:25;;;;;;;;;;;20.70;69.00;;;;;;1525621;76;677;-57
2023/11/20 01:46:28;;;;;;;;;;;20.70;68.80;;;;;;1520227;76;861;-59
2023/11/20 01:48:30;;;;;;;;;;;20.60;68.80;;;;;;1518582;76;799;-62
2023/11/20 01:50:34;;;;;;;;;;;20.70;69.00;;;;;;1510762;76;777;-62
2023/11/20 01:52:38;;;;;;;;;;;20.70;69.00;;;;;;1517734;76;1929;-61
2023/11/20 01:54:40;;;;;;;;;;;20.60;68.90;;;;;;1514867;76;1835;-62
2023/11/20 01:56:42;;;;;;;;;;;20.60;68.90;;;;;;1519958;76;743;-63
2023/11/20 01:58:43;;;;;;;;;;;20.70;69.00;;;;;;1534118;76;822;-61
2023/11/20 02:00:45;;;;;;;;;;;20.70;69.10;;;;;;1525258;76;755;-61
2023/11/20 02:02:47;;;;;;;;;;;20.70;69.20;;;;;;1517299;76;1143;-62
2023/11/20 02:04:52;;;;;;;;;;;20.60;69.10;;;;;;1517893;76;707;-61
2023/11/20 02:06:54;;;;;;;;;;;20.60;69.10;;;;;;1525384;76;1650;-60
2023/11/20 02:08:56;;;;;;;;;;;20.70;69.20;;;;;;1519172;76;857;-60
2023/11/20 02:11:00;;;;;;;;;;;20.70;69.20;;;;;;1518584;76;784;-61
2023/11/20 02:13:04;;;;;;;;;;;20.60;69.10;;;;;;1521863;76;1941;-61
2023/11/20 02:15:06;;;;;;;;;;;20.50;69.10;;;;;;1516020;76;786;-61
2023/11/20 02:17:08;;;;;;;;;;;20.70;69.20;;;;;;1513213;76;884;-61
2023/11/20 02:19:16;;;;;;;;;;;20.60;69.00;;;;;;1518575;76;806;-62
2023/11/20 02:21:17;;;;;;;;;;;20.60;69.00;;;;;;1516061;76;706;-61
2023/11/20 02:23:19;;;;;;;;;;;20.70;69.10;;;;;;1510715;76;1120;-61
2023/11/20 02:25:21;;;;;;;;;;;20.70;69.10;;;;;;1517141;76;741;-62
2023/11/20 02:27:43;;;;;;;;;;;20.60;69.10;;;;;;1520340;76;670;-61
2023/11/20 02:29:49;;;;;;;;;;;20.60;69.00;;;;;;1512565;76;1981;-61
2023/11/20 02:31:51;;;;;;;;;;;20.70;69.10;;;;;;1527627;75;1976;-61
2023/11/20 02:33:53;;;;;;;;;;;20.60;69.00;;;;;;1515970;76;1931;-61
2023/11/20 02:35:55;;;;;;;;;;;20.60;69.00;;;;;;1517092;76;716;-61
2023/11/20 02:37:57;;;;;;;;;;;20.70;69.10;;;;;;1528134;76;783;-62
2023/11/20 02:39:59;;;;;;;;;;;20.60;68.90;;;;;;1521204;76;786;-63
2023/11/20 02:42:03;;;;;;;;;;;20.60;68.90;;;;;;1521866;76;1184;-61
2023/11/20 02:44:05;;;;;;;;;;;20.60;68.90;;;;;;1524018;76;739;-61
2023/11/20 02:46:07;;;;;;;;;;;20.70;69.00;;;;;;1520477;76;812;-61
2023/11/20 02:48:08;;;;;;;;;;;20.70;69.10;;;;;;1523590;76;1538;-63
2023/11/20 02:50:10;;;;;;;;;;;20.70;69.00;;;;;;1535496;76;753;-60
2023/11/20 02:52:14;;;;;;;;;;;20.60;68.90;;;;;;1525130;76;1130;-60
2023/11/20 02:54:16;;;;;;;;;;;20.60;69.00;;;;;;1511164;76;1924;-61
2023/11/20 02:56:18;;;;;;;;;;;20.60;69.00;;;;;;1525537;76;688;-60
2023/11/20 02:58:20;;;;;;;;;;;20.70;69.10;;;;;;1523833;76;688;-61
2023/11/20 03:00:22;;;;;;;;;;;20.70;69.10;;;;;;1519563;76;698;-61
2023/11/20 03:02:23;;;;;;;;;;;20.70;69.10;;;;;;1521949;76;1355;-60
2023/11/20 03:04:25;;;;;;;;;;;20.60;69.00;;;;;;1514050;76;706;-60
2023/11/20 03:06:28;;;;;;;;;;;20.70;69.10;;;;;;1524205;76;733;-61
2023/11/20 03:08:30;;;;;;;;;;;20.60;69.00;;;;;;1522262;76;739;-63
2023/11/20 03:10:32;;;;;;;;;;;20.70;69.10;;;;;;1518777;76;764;-61
2023/11/20 03:12:34;;;;;;;;;;;20.70;69.10;;;;;;1520855;76;1950;-61
2023/11/20 03:14:35;;;;;;;;;;;20.70;69.00;;;;;;1521742;76;750;-62
2023/11/20 03:16:38;;;;;;;;;;;20.60;68.90;;;;;;1523983;76;1559;-65
2023/11/20 03:18:40;;;;;;;;;;;20.60;68.90;;;;;;1521973;76;775;-62
2023/11/20 03:20:42;;;;;;;;;;;20.70;69.00;;;;;;1516271;76;682;-62
2023/11/20 03:22:44;;;;;;;;;;;20.70;68.90;;;;;;1522375;76;1160;-62
2023/11/20 03:24:46;;;;;;;;;;;20.70;68.90;;;;;;1528114;76;959;-62
2023/11/20 03:26:48;;;;;;;;;;;20.60;68.80;;;;;;1527055;76;778;-60
2023/11/20 03:28:50;;;;;;;;;;;20.70;68.90;;;;;;1518096;76;664;-61
2023/11/20 03:30:52;;;;;;;;;;;20.70;68.70;;;;;;1517593;76;1583;-61
2023/11/20 03:32:54;;;;;;;;;;;20.70;68.70;;;;;;1523547;76;1941;-60
2023/11/20 03:34:56;;;;;;;;;;;20.70;68.60;;;;;;1519813;76;733;-63
2023/11/20 03:36:58;;;;;;;;;;;20.70;68.50;;;;;;1524626;76;994;-61
2023/11/20 03:39:00;;;;;;;;;;;20.70;68.40;;;;;;1521353;76;714;-61
2023/11/20 03:41:02;;;;;;;;;;;20.80;68.10;;;;;;1521270;76;678;-60
2023/11/20 03:43:04;;;;;;;;;;;20.70;68.00;;;;;;1520700;76;1107;-61
2023/11/20 03:45:06;;;;;;;;;;;20.70;67.80;;;;;;1514334;76;1520;-61
2023/11/20 03:47:08;;;;;;;;;;;20.80;67.50;;;;;;1533123;76;810;-61
2023/11/20 03:49:10;;;;;;;;;;;20.80;67.20;;;;;;1520878;76;780;-63
2023/11/20 03:51:12;;;;;;;;;;;20.80;66.90;;;;;;1523185;76;747;-62
2023/11/20 03:53:14;;;;;;;;;;;20.70;66.60;;;;;;1514672;76;1949;-61
2023/11/20 03:55:16;;;;;;;;;;;20.70;66.50;;;;;;1518671;76;760;-62
2023/11/20 03:57:18;;;;;;;;;;;20.70;66.30;;;;;;1520792;76;961;-61
2023/11/20 03:59:20;;;;;;;;;;;20.70;66.10;;;;;;1516149;76;1601;-60
2023/11/20 04:01:22;;;;;;;;;;;20.80;66.10;;;;;;1522358;76;677;-62
2023/11/20 04:03:24;;;;;;;;;;;20.80;65.90;;;;;;1527534;76;1079;-62
2023/11/20 04:05:26;;;;;;;;;;;20.80;65.70;;;;;;1519322;76;652;-61
2023/11/20 04:07:28;;;;;;;;;;;20.80;65.60;;;;;;1525907;76;689;-60
2023/11/20 04:09:29;;;;;;;;;;;20.80;65.50;;;;;;1515343;76;702;-61
2023/11/20 04:11:32;;;;;;;;;;;20.80;65.50;;;;;;1523089;76;827;-61
2023/11/20 04:13:34;;;;;;;;;;;20.80;65.30;;;;;;1519016;76;2151;-64
2023/11/20 04:15:36;;;;;;;;;;;20.80;65.20;;;;;;1511675;76;675;-61
2023/11/20 04:17:38;;;;;;;;;;;20.80;65.20;;;;;;1520342;76;800;-62
2023/11/20 04:19:40;;;;;;;;;;;20.80;65.20;;;;;;1518632;76;734;-59
2023/11/20 04:21:42;;;;;;;;;;;20.80;65.00;;;;;;1518697;76;723;-59
2023/11/20 04:23:44;;;;;;;;;;;20.80;64.90;;;;;;1516446;76;1101;-59
2023/11/20 04:25:46;;;;;;;;;;;20.80;64.90;;;;;;1515592;76;1171;-59
2023/11/20 04:27:52;;;;;;;;;;;20.90;64.90;;;;;;1520556;76;785;-59
2023/11/20 04:29:51;;;;;;;;;;;20.80;64.70;;;;;;1514411;76;1483;-58
2023/11/20 04:31:53;;;;;;;;;;;20.90;64.80;;;;;;1521693;76;1111;-60
2023/11/20 04:33:55;;;;;;;;;;;20.80;64.60;;;;;;1526515;76;1925;-59
2023/11/20 04:35:57;;;;;;;;;;;20.90;64.70;;;;;;1521231;76;728;-59
2023/11/20 04:37:59;;;;;;;;;;;20.80;64.60;;;;;;1521510;76;666;-58
2023/11/20 04:40:01;;;;;;;;;;;20.80;64.50;;;;;;1525913;76;1526;-59
2023/11/20 04:42:03;;;;;;;;;;;20.80;64.50;;;;;;1522019;76;1166;-59
2023/11/20 04:44:05;;;;;;;;;;;20.80;64.50;;;;;;1520228;76;732;-59
2023/11/20 04:46:10;;;;;;;;;;;20.80;64.40;;;;;;1517395;76;708;-59
2023/11/20 04:48:12;;;;;;;;;;;20.80;64.30;;;;;;1522888;76;783;-59
2023/11/20 04:50:15;;;;;;;;;;;20.90;64.50;;;;;;1519934;76;708;-59
2023/11/20 04:52:17;;;;;;;;;;;20.80;64.20;;;;;;1522585;75;1110;-59
2023/11/20 04:54:19;;;;;;;;;;;20.90;64.20;;;;;;1527525;76;1926;-59
2023/11/20 04:56:21;;;;;;;;;;;20.90;64.30;;;;;;1524021;76;737;-60
2023/11/20 04:58:23;;;;;;;;;;;20.90;64.20;;;;;;1522606;76;753;-61
2023/11/20 05:00:25;;;;;;;;;;;20.90;64.30;;;;;;1519052;76;688;-60
2023/11/20 05:02:28;;;;;;;;;;;21.00;64.30;;;;;;1512670;76;1147;-66
2023/11/20 05:04:30;;;;;;;;;;;20.90;64.70;;;;;;1522710;76;807;-62
2023/11/20 05:06:31;;;;;;;;;;;21.00;65.10;;;;;;1518558;76;716;-65
2023/11/20 05:08:33;;;;;;;;;;;21.00;65.20;;;;;;1517465;76;1532;-62
2023/11/20 05:10:36;;;;;;;;;;;21.00;65.40;;;;;;1519728;76;682;-63
2023/11/20 05:12:38;;;;;;;;;;;21.00;65.70;;;;;;1520935;76;1127;-63
2023/11/20 05:14:39;;;;;;;;;;;21.00;65.80;;;;;;1524103;76;1933;-61
2023/11/20 05:16:41;;;;;;;;;;;21.00;65.70;;;;;;1519042;76;752;-61
2023/11/20 05:18:43;;;;;;;;;;;21.00;65.70;;;;;;1528337;76;742;-63
2023/11/20 05:20:45;;;;;;;;;;;21.00;65.80;;;;;;1527077;76;719;-62
2023/11/20 05:22:47;;;;;;;;;;;21.00;65.80;;;;;;1518632;75;1634;-61
2023/11/20 05:24:49;;;;;;;;;;;21.00;65.90;;;;;;1520353;76;747;-63
2023/11/20 05:26:52;;;;;;;;;;;21.00;65.00;;;;;;1519876;76;642;-61
2023/11/20 05:28:54;;;;;;;;;;;21.00;65.40;;;;;;1509293;76;801;-62
2023/11/20 05:30:56;;;;;;;;;;;21.00;65.80;;;;;;1514893;76;727;-63
2023/11/20 05:32:59;;;;;;;;;;;21.00;66.10;;;;;;1528454;75;1110;-63
2023/11/20 05:35:01;;;;;;;;;;;21.00;66.60;;;;;;1518538;76;1925;-63
2023/11/20 05:37:03;;;;;;;;;;;21.00;66.50;;;;;;1519825;76;1536;-61
2023/11/20 05:39:05;;;;;;;;;;;21.00;66.50;;;;;;1520135;76;703;-63
2023/11/20 05:41:07;;;;;;;;;;;21.00;66.80;;;;;;1523399;76;716;-66
2023/11/20 05:43:08;;;;;;;;;;;21.00;67.00;;;;;;1518810;76;1087;-65
2023/11/20 05:45:10;;;;;;;;;;;21.00;67.00;;;;;;1513257;76;733;-61
2023/11/20 05:47:12;;;;;;;;;;;21.00;65.70;;;;;;1519104;76;780;-61
2023/11/20 05:49:14;;;;;;;;;;;21.00;63.00;;;;;;1520748;76;867;-61
2023/11/20 05:51:19;;;;;;;;;;;21.00;65.70;;;;;;1524671;76;1581;-62
2023/11/20 05:53:21;;;;;;;;;;;20.90;66.30;;;;;;1522798;76;1151;-61
2023/11/20 05:55:26;;;;;;;;;;;21.00;66.30;;;;;;1515256;76;1937;-64
2023/11/20 05:57:27;;;;;;;;;;;20.90;66.40;;;;;;1516423;76;1440;-63
2023/11/20 05:59:30;;;;;;;;;;;20.90;66.50;;;;;;1510109;76;749;-61
2023/11/20 06:01:41;;;;;;;;;;;20.90;66.50;;;;;;1519270;76;683;-61
2023/11/20 06:03:43;;;;;;;;;;;20.90;66.50;;;;;;1516716;76;1053;-61
2023/11/20 06:05:45;;;;;;;;;;;21.00;66.50;;;;;;1512029;76;1569;-61
2023/11/20 06:07:47;;;;;;;;;;;20.90;66.50;;;;;;1511834;76;740;-61
2023/11/20 06:09:49;;;;;;;;;;;20.90;66.40;;;;;;1522101;76;789;-62
2023/11/20 06:11:51;;;;;;;;;;;20.90;66.40;;;;;;1522861;76;1123;-60
2023/11/20 06:13:53;;;;;;;;;;;20.90;66.40;;;;;;1516661;76;1930;-63
2023/11/20 06:15:54;;;;;;;;;;;20.90;66.40;;;;;;1516517;76;702;-61
2023/11/20 06:17:57;;;;;;;;;;;20.90;66.30;;;;;;1518616;76;783;-60
2023/11/20 06:19:59;;;;;;;;;;;20.90;66.30;;;;;;1507508;76;1552;-62
2023/11/20 06:22:00;;;;;;;;;;;20.80;66.10;;;;;;1519536;76;1104;-62
2023/11/20 06:24:02;;;;;;;;;;;20.90;66.30;;;;;;1515470;76;733;-63
2023/11/20 06:26:04;;;;;;;;;;;20.80;66.10;;;;;;1522602;76;688;-63
2023/11/20 06:28:06;;;;;;;;;;;20.80;66.10;;;;;;1525185;76;722;-62
2023/11/20 06:30:10;;;;;;;;;;;20.80;66.00;;;;;;1528116;76;786;-61
2023/11/20 06:32:12;;;;;;;;;;;20.80;66.00;;;;;;1520475;76;1713;-61
2023/11/20 06:34:14;;;;;;;;;;;20.80;66.00;;;;;;1520015;76;1922;-61
2023/11/20 06:36:17;;;;;;;;;;;20.90;66.00;;;;;;1519457;76;715;-61
2023/11/20 06:38:18;;;;;;;;;;;20.80;65.80;;;;;;1520397;76;933;-61
2023/11/20 06:40:20;;;;;;;;;;;20.80;65.80;;;;;;1523596;76;685;-61
2023/11/20 06:42:22;;;;;;;;;;;20.90;65.80;;;;;;1517049;76;1209;-65
2023/11/20 06:44:24;;;;;;;;;;;20.80;65.60;;;;;;1519587;76;675;-62
2023/11/20 06:46:26;;;;;;;;;;;20.90;65.60;;;;;;1518466;76;1505;-65
2023/11/20 06:48:28;;;;;;;;;;;20.80;65.40;;;;;;1518711;76;680;-65
2023/11/20 06:50:30;;;;;;;;;;;20.80;65.30;;;;;;1523517;76;712;-62
2023/11/20 06:52:32;;;;;;;;;;;20.80;65.30;;;;;;1516796;76;1115;-61
2023/11/20 06:54:34;;;;;;;;;;;20.80;65.20;;;;;;1519374;76;1918;-61
2023/11/20 06:56:36;;;;;;;;;;;20.80;65.10;;;;;;1516099;76;737;-64
2023/11/20 06:58:39;;;;;;;;;;;20.70;65.00;;;;;;1515569;76;712;-62
2023/11/20 07:00:42;;;;;;;;;;;20.70;64.90;;;;;;1524952;76;1573;-63
2023/11/20 07:02:44;;;;;;;;;;;20.80;64.90;;;;;;1522340;76;1183;-61
2023/11/20 07:04:46;;;;;;;;;;;20.80;64.90;;;;;;1519931;76;800;-61
2023/11/20 07:06:49;;;;;;;;;;;20.70;64.80;;;;;;1523197;76;694;-61
2023/11/20 07:08:53;;;;;;;;;;;20.80;64.70;;;;;;1519079;76;833;-60
2023/11/20 07:10:54;;;;;;;;;;;20.80;64.70;;;;;;1522574;76;1653;-61
2023/11/20 07:12:56;;;;;;;;;;;20.80;64.60;;;;;;1518316;76;1139;-61
2023/11/20 07:14:58;;;;;;;;;;;20.70;64.60;;;;;;1521908;76;1929;-64
2023/11/20 07:17:00;;;;;;;;;;;20.70;64.60;;;;;;1519515;76;687;-64
2023/11/20 07:19:02;;;;;;;;;;;20.80;64.60;;;;;;1515180;76;809;-62
2023/11/20 07:21:06;;;;;;;;;;;20.70;64.50;;;;;;1521214;76;724;-64
2023/11/20 07:23:08;;;;;;;;;;;20.80;64.50;;;;;;1517205;76;1143;-62
2023/11/20 07:25:11;;;;;;;;;;;20.80;64.50;;;;;;1520108;76;655;-61
2023/11/20 07:27:13;;;;;;;;;;;20.70;64.50;;;;;;1513969;76;691;-62
2023/11/20 07:29:15;;;;;;;;;;;20.80;64.40;;;;;;1514975;76;1549;-62
2023/11/20 07:31:26;;;;;;;;;;;20.70;64.30;;;;;;1513865;76;812;-62
2023/11/20 07:33:28;;;;;;;;;;;20.70;64.30;;;;;;1514986;76;1124;-64
2023/11/20 07:35:30;;;;;;;;;;;20.70;64.30;;;;;;1510133;76;1949;-63
2023/11/20 07:37:32;;;;;;;;;;;20.70;64.30;;;;;;1512272;76;631;-62
2023/11/20 07:39:34;;;;;;;;;;;20.70;64.30;;;;;;1516311;76;751;-61
2023/11/20 07:41:36;;;;;;;;;;;20.70;64.30;;;;;;1514012;76;802;-62
2023/11/20 07:43:38;;;;;;;;;;;20.70;64.20;;;;;;1513586;76;1631;-63
2023/11/20 07:45:40;;;;;;;;;;;20.70;64.20;;;;;;1518502;76;776;-62
2023/11/20 07:47:42;;;;;;;;;;;20.70;64.30;;;;;;1519382;76;809;-62
2023/11/20 07:49:44;;;;;;;;;;;20.60;64.10;;;;;;1513650;76;790;-64
2023/11/20 07:51:47;;;;;;;;;;;20.70;64.20;;;;;;1508197;76;790;-65
2023/11/20 07:53:49;;;;;;;;;;;20.70;64.10;;;;;;1517538;76;1198;-62
2023/11/20 07:55:51;;;;;;;;;;;20.70;64.10;;;;;;1512387;76;1986;-63
2023/11/20 07:57:53;;;;;;;;;;;20.60;64.00;;;;;;1519149;76;1369;-63
2023/11/20 07:59:54;;;;;;;;;;;20.70;64.10;;;;;;1511678;76;686;-62
2023/11/20 08:01:56;;;;;;;;;;;20.60;63.90;;;;;;1517481;76;1140;-61
2023/11/20 08:03:58;;;;;;;;;;;20.60;63.90;;;;;;1510454;76;780;-64
2023/11/20 08:06:01;;;;;;;;;;;20.60;63.90;;;;;;1512703;76;797;-62
2023/11/20 08:08:03;;;;;;;;;;;20.60;63.90;;;;;;1511480;76;811;-61
2023/11/20 08:10:06;;;;;;;;;;;20.60;63.90;;;;;;1504099;76;699;-61
2023/11/20 08:12:08;;;;;;;;;;;20.60;63.80;;;;;;1519925;76;1540;-64
2023/11/20 08:14:14;;;;;;;;;;;20.60;63.80;;;;;;1510208;76;737;-62
2023/11/20 08:16:13;;;;;;;;;;;20.60;63.80;;;;;;1507171;76;1971;-61
2023/11/20 08:18:15;;;;;;;;;;;20.60;63.70;;;;;;1526329;76;774;-62
2023/11/20 08:20:18;;;;;;;;;;;20.60;63.70;;;;;;1512275;76;692;-61
2023/11/20 08:22:20;;;;;;;;;;;20.60;63.70;;;;;;1507153;76;1153;-61
2023/11/20 08:24:22;;;;;;;;;;;20.60;63.70;;;;;;1521113;76;808;-60
2023/11/20 08:26:25;;;;;;;;;;;20.60;63.60;;;;;;1514776;76;1336;-63
2023/11/20 08:28:27;;;;;;;;;;;20.60;63.60;;;;;;1513045;76;734;-62
2023/11/20 08:30:32;;;;;;;;;;;20.60;63.60;;;;;;1511710;76;723;-60
2023/11/20 08:32:33;;;;;;;;;;;20.60;63.60;;;;;;1509817;76;1663;-59
2023/11/20 08:34:34;;;;;;;;;;;20.60;63.60;;;;;;1519299;76;1913;-60
2023/11/20 08:36:37;;;;;;;;;;;20.60;63.50;;;;;;1514282;76;787;-60
2023/11/20 08:38:38;;;;;;;;;;;20.60;63.50;;;;;;1513945;76;820;-59
2023/11/20 08:40:40;;;;;;;;;;;20.60;63.50;;;;;;1519823;76;1435;-60
2023/11/20 08:42:42;;;;;;;;;;;20.60;63.50;;;;;;1510623;76;1208;-59
2023/11/20 08:44:44;;;;;;;;;;;20.60;63.50;;;;;;1516805;76;818;-58
2023/11/20 08:46:46;;;;;;;;;;;20.50;63.50;;;;;;1512875;76;928;-61
2023/11/20 08:48:48;;;;;;;;;;;20.60;63.40;;;;;;1513299;76;756;-61
2023/11/20 08:50:50;;;;;;;;;;;20.50;63.40;;;;;;1510435;76;803;-59
2023/11/20 08:52:52;;;;;;;;;;;20.60;63.40;;;;;;1510549;76;1147;-61
2023/11/20 08:54:55;;;;;;;;;;;20.50;63.40;;;;;;1514296;76;1930;-61
2023/11/20 08:56:57;;;;;;;;;;;20.60;63.40;;;;;;1518965;76;736;-58
2023/11/20 08:58:59;;;;;;;;;;;20.50;63.40;;;;;;1523979;76;707;-59
2023/11/20 09:01:01;;;;;;;;;;;20.50;63.30;;;;;;1513650;76;678;-59
2023/11/20 09:03:03;;;;;;;;;;;20.50;63.30;;;;;;1514984;76;1140;-60
2023/11/20 09:05:05;;;;;;;;;;;20.50;63.30;;;;;;1506604;76;733;-59
2023/11/20 09:07:07;;;;;;;;;;;20.60;63.20;;;;;;1514960;76;1159;-59
2023/11/20 09:09:09;;;;;;;;;;;20.50;63.20;;;;;;1510637;76;654;-59
2023/11/20 09:11:11;;;;;;;;;;;20.50;63.20;;;;;;1521412;76;742;-59
2023/11/20 09:13:13;;;;;;;;;;;20.50;63.20;;;;;;1517178;76;1251;-59
2023/11/20 09:15:16;;;;;;;;;;;20.50;63.10;;;;;;1506847;76;1938;-59
2023/11/20 09:17:17;;;;;;;;;;;20.50;63.10;;;;;;1516889;76;676;-59
2023/11/20 09:19:19;;;;;;;;;;;20.60;63.10;;;;;;1513075;76;822;-59
2023/11/20 09:21:21;;;;;;;;;;;20.50;63.10;;;;;;1516377;77;1535;-59
2023/11/20 09:23:23;;;;;;;;;;;20.50;63.10;;;;;;1505645;77;1135;-61
2023/11/20 09:25:25;;;;;;;;;;;20.50;63.00;;;;;;1527193;76;750;-60
2023/11/20 09:27:27;;;;;;;;;;;20.50;63.00;;;;;;1526900;76;811;-59
2023/11/20 09:29:29;;;;;;;;;;;20.50;63.00;;;;;;1528847;76;703;-57
2023/11/20 09:31:34;;;;;;;;;;;20.50;63.00;;;;;;1530461;76;707;-58
2023/11/20 09:33:37;;;;;;;;;;;20.50;62.90;;;;;;1523534;76;1526;-59
2023/11/20 09:35:39;;;;;;;;;;;20.50;62.90;;;;;;1520511;76;1924;-60
2023/11/20 09:37:41;;;;;;;;;;;20.50;62.90;;;;;;1532615;76;793;-61
2023/11/20 09:39:46;;;;;;;;;;;20.50;62.90;;;;;;1527585;76;739;-59
2023/11/20 09:41:46;;;;;;;;;;;20.50;62.90;;;;;;1522782;76;1688;-59
2023/11/20 09:43:51;;;;;;;;;;;20.50;62.90;;;;;;1523215;76;1183;-59
2023/11/20 09:45:54;;;;;;;;;;;20.50;62.90;;;;;;1525395;76;768;-59
2023/11/20 09:47:56;;;;;;;;;;;20.50;62.90;;;;;;1519662;76;683;-59
2023/11/20 09:49:58;;;;;;;;;;;20.50;62.90;;;;;;1524098;76;1408;-58
2023/11/20 09:52:00;;;;;;;;;;;20.50;62.80;;;;;;1525905;76;1128;-59
2023/11/20 09:54:05;;;;;;;;;;;20.50;62.80;;;;;;1525891;76;709;-60
2023/11/20 09:56:09;;;;;;;;;;;20.40;62.70;;;;;;1524951;76;1925;-59
2023/11/20 09:58:11;;;;;;;;;;;20.50;62.80;;;;;;1528441;76;701;-61
2023/11/20 10:00:17;;;;;;;;;;;20.50;62.70;;;;;;1529056;76;898;-61
2023/11/20 10:02:17;;;;;;;;;;;20.40;62.60;;;;;;1527666;76;1635;-59
2023/11/20 10:04:19;;;;;;;;;;;20.40;62.60;;;;;;1533363;76;1724;-61
2023/11/20 10:06:25;;;;;;;;;;;20.50;62.60;;;;;;1520288;76;757;-61
2023/11/20 10:08:27;;;;;;;;;;;20.40;62.60;;;;;;1541736;76;606;-59
2023/11/20 10:10:29;;;;;;;;;;;20.40;62.50;;;;;;1518899;76;767;-58
2023/11/20 10:12:31;;;;;;;;;;;20.50;62.60;;;;;;1532482;76;1172;-60
2023/11/20 10:14:33;;;;;;;;;;;20.50;62.60;;;;;;1529312;76;777;-58
2023/11/20 10:16:35;;;;;;;;;;;20.40;62.50;;;;;;1531101;76;1933;-59
2023/11/20 10:18:38;;;;;;;;;;;20.50;62.60;;;;;;1524200;76;1479;-60
2023/11/20 10:20:47;;;;;;;;;;;20.40;62.50;;;;;;1524210;76;680;-61
2023/11/20 10:22:49;;;;;;;;;;;20.50;62.60;;;;;;1520200;76;1181;-59
2023/11/20 10:24:51;;;;;;;;;;;20.40;62.40;;;;;;1495273;77;702;-61
2023/11/20 10:26:53;;;;;;;;;;;20.40;62.40;;;;;;1533069;76;692;-59
2023/11/20 10:28:55;;;;;;;;;;;20.40;62.40;;;;;;1532984;76;722;-62
2023/11/20 10:30:57;;;;;;;;;;;20.40;62.40;;;;;;1530269;76;731;-60
2023/11/20 10:32:59;;;;;;;;;;;20.50;62.40;;;;;;1525749;76;1493;-59
2023/11/20 10:35:17;;;;;;;;;;;20.40;62.40;;;;;;1531966;76;661;-59
2023/11/20 10:37:20;;;;;;;;;;;20.40;62.40;;;;;;1522684;76;745;-59
2023/11/20 10:39:22;;;;;;;;;;;20.40;62.40;;;;;;1525065;76;680;-59
2023/11/20 10:41:24;;;;;;;;;;;20.50;62.40;;;;;;1522328;76;726;-59
2023/11/20 10:43:27;;;;;;;;;;;20.40;62.40;;;;;;1526562;76;1157;-59
2023/11/20 10:45:29;;;;;;;;;;;20.40;62.30;;;;;;1531171;76;1472;-60
2023/11/20 10:47:31;;;;;;;;;;;20.40;62.30;;;;;;1528395;76;646;-60
2023/11/20 10:49:34;;;;;;;;;;;20.40;62.30;;;;;;1527168;76;765;-59
2023/11/20 10:51:35;;;;;;;;;;;20.40;62.30;;;;;;1529739;76;659;-59
2023/11/20 10:53:41;;;;;;;;;;;20.40;62.20;;;;;;1521473;76;1117;-60
2023/11/20 10:55:50;;;;;;;;;;;20.40;62.30;;;;;;1528643;76;1909;-60
2023/11/20 10:57:48;;;;;;;;;;;20.40;62.20;;;;;;1523142;76;1628;-60
2023/11/20 10:59:52;;;;;;;;;;;20.40;62.20;;;;;;1525288;76;1539;-59
2023/11/20 11:01:53;;;;;;;;;;;20.40;62.20;;;;;;1533489;76;1653;-59
2023/11/20 11:03:56;;;;;;;;;;;20.40;62.10;;;;;;1522792;76;683;-59
2023/11/20 11:06:09;;;;;;;;;;;20.40;62.10;;;;;;1523908;76;616;-59
2023/11/20 11:08:06;;;;;;;;;;;20.40;62.10;;;;;;1531657;76;1632;-58
2023/11/20 11:10:11;;;;;;;;;;;20.30;62.10;;;;;;1533632;76;733;-60
2023/11/20 11:12:13;;;;;;;;;;;20.40;62.10;;;;;;1531388;76;1172;-59
2023/11/20 11:14:15;;;;;;;;;;;20.40;62.00;;;;;;1530125;76;1636;-60
2023/11/20 11:16:24;;;;;;;;;;;20.40;62.00;;;;;;1527857;76;1932;-59
2023/11/20 11:18:30;;;;;;;;;;;20.40;62.00;;;;;;1527903;76;959;-59
2023/11/20 11:20:40;;;;;;;;;;;20.40;62.00;;;;;;1520282;76;764;-60
2023/11/20 11:22:43;;;;;;;;;;;20.40;62.00;;;;;;1529714;76;1158;-59
2023/11/20 11:24:45;;;;;;;;;;;20.40;61.90;;;;;;1525741;76;697;-62
2023/11/20 11:27:04;;;;;;;;;;;20.40;61.90;;;;;;1528257;76;751;-59
2023/11/20 11:29:08;;;;;;;;;;;20.40;61.90;;;;;;1524449;76;1229;-59
2023/11/20 11:31:10;;;;;;;;;;;20.40;61.90;;;;;;1528743;76;671;-59
2023/11/20 11:33:30;;;;;;;;;;;20.40;61.90;;;;;;1518931;76;1147;-59
2023/11/20 11:35:33;;;;;;;;;;;20.40;61.90;;;;;;1523920;76;1936;-60
2023/11/20 11:37:51;;;;;;;;;;;20.40;61.80;;;;;;1527142;76;1743;-60
2023/11/20 11:39:55;;;;;;;;;;;20.40;61.80;;;;;;1523459;76;773;-58
2023/11/20 11:42:07;;;;;;;;;;;20.40;61.80;;;;;;1517201;76;1990;-58
2023/11/20 11:44:28;;;;;;;;;;;20.30;61.80;;;;;;1533329;76;720;-59
2023/11/20 11:46:31;;;;;;;;;;;20.40;61.80;;;;;;1523888;76;782;-59
2023/11/20 11:48:36;;;;;;;;;;;20.30;61.80;;;;;;1527852;76;1936;-58
2023/11/20 11:50:38;;;;;;;;;;;20.40;61.90;;;;;;1524275;76;966;-60
2023/11/20 11:52:40;;;;;;;;;;;20.30;61.70;;;;;;1528373;76;1155;-59
2023/11/20 11:54:42;;;;;;;;;;;20.40;61.80;;;;;;1489453;77;667;-60
2023/11/20 11:56:46;;;;;;;;;;;20.40;61.80;;;;;;1528877;76;1920;-59
2023/11/20 11:58:47;;;;;;;;;;;20.40;61.70;;;;;;1526706;76;1902;-59
2023/11/20 12:00:51;;;;;;;;;;;20.40;61.80;;;;;;1523433;76;664;-59
2023/11/20 12:02:57;;;;;;;;;;;20.30;61.80;;;;;;1507301;76;1214;-59
2023/11/20 12:04:59;;;;;;;;;;;20.30;61.70;;;;;;1526459;76;731;-59
2023/11/20 12:07:08;;;;;;;;;;;20.40;61.80;;;;;;1528846;76;678;-59
2023/11/20 12:09:13;;;;;;;;;;;20.40;61.80;;;;;;1533822;76;794;-59
2023/11/20 12:11:15;;;;;;;;;;;20.40;61.70;;;;;;1537704;76;1638;-59